Time;durP1;ratioP1;P1;durP2;ratioP2;P2;SDS_P1;SDS_P2;PMS_P1;PMS_P2;Temp;Humidity;BMP_temperature;BMP_pressure;BME280_temperature;BME280_humidity;BME280_pressure;Samples;Min_cycle;Max_cycle;Signal;HPM_P1;HPM_P2
2021/07/28 00:02:16;;;;;;;10.50;8.07;;;16.30;99.90;;;;;;5128855;27;20026;-80
2021/07/28 00:04:42;;;;;;;;;;;16.30;99.90;;;;;;5128347;27;20039;-80
2021/07/28 00:07:11;;;;;;;13.18;8.63;;;16.30;99.90;;;;;;5132142;27;19923;-79
2021/07/28 00:09:37;;;;;;;11.88;8.38;;;16.30;99.90;;;;;;5115493;27;20066;-79
2021/07/28 00:12:03;;;;;;;10.68;7.80;;;16.40;99.90;;;;;;5123610;27;20039;-80
2021/07/28 00:14:29;;;;;;;;;;;16.40;99.90;;;;;;5131690;27;20092;-80
2021/07/28 00:16:56;;;;;;;14.65;9.95;;;16.30;99.90;;;;;;5132310;27;19915;-81
2021/07/28 00:19:34;;;;;;;13.07;9.18;;;16.30;99.90;;;;;;5100326;27;20027;-79
2021/07/28 00:24:45;;;;;;;14.43;9.93;;;16.30;99.90;;;;;;5132845;27;20039;-80
2021/07/28 00:27:11;;;;;;;12.32;9.15;;;16.40;99.90;;;;;;5115177;27;20045;-79
2021/07/28 00:29:38;;;;;;;14.20;9.48;;;16.30;99.90;;;;;;5131408;27;20039;-80
2021/07/28 00:32:04;;;;;;;;;;;16.20;99.90;;;;;;5126886;27;20042;-79
2021/07/28 00:34:29;;;;;;;15.25;10.35;;;16.20;99.90;;;;;;5114803;27;19915;-79
2021/07/28 00:36:55;;;;;;;;;;;16.20;99.90;;;;;;5130600;27;20388;-79
2021/07/28 00:39:21;;;;;;;15.68;9.63;;;16.20;99.90;;;;;;5132464;27;20359;-79
2021/07/28 00:41:47;;;;;;;;;;;16.20;99.90;;;;;;5132251;27;20097;-78
2021/07/28 00:44:14;;;;;;;13.27;9.43;;;16.10;99.90;;;;;;5131899;27;19921;-80
2021/07/28 00:46:43;;;;;;;14.70;9.50;;;16.10;99.90;;;;;;5132361;27;20133;-79
2021/07/28 00:49:09;;;;;;;15.15;10.10;;;16.10;99.90;;;;;;5114163;27;20124;-78
2021/07/28 00:51:35;;;;;;;15.50;9.95;;;16.10;99.90;;;;;;5122101;27;20054;-79
2021/07/28 00:54:01;;;;;;;;;;;16.00;99.90;;;;;;5128222;27;20473;-79
2021/07/28 00:56:27;;;;;;;16.42;10.27;;;16.00;99.90;;;;;;5114423;27;19920;-78
2021/07/28 00:58:56;;;;;;;15.18;10.77;;;16.00;99.90;;;;;;5132377;27;20035;-78
2021/07/28 01:01:22;;;;;;;15.55;10.23;;;16.00;99.90;;;;;;5131690;27;20035;-79
2021/07/28 01:03:48;;;;;;;15.13;10.73;;;16.00;99.90;;;;;;5130514;27;20039;-79
2021/07/28 01:06:13;;;;;;;17.88;11.55;;;16.00;99.90;;;;;;5112466;27;20042;-78
2021/07/28 01:08:40;;;;;;;;;;;16.00;99.90;;;;;;5132808;27;20119;-78
2021/07/28 01:11:06;;;;;;;16.67;12.07;;;15.90;99.90;;;;;;5130549;27;19926;-78
2021/07/28 01:13:35;;;;;;;16.30;11.88;;;15.90;99.90;;;;;;5131294;27;20365;-78
2021/07/28 01:16:13;;;;;;;16.45;11.40;;;15.90;99.90;;;;;;5127923;27;20396;-79
2021/07/28 01:18:41;;;;;;;18.75;13.13;;;15.90;99.90;;;;;;5122779;27;20035;-79
2021/07/28 01:21:09;;;;;;;19.13;12.63;;;15.90;99.90;;;;;;5130472;27;20620;-79
2021/07/28 01:23:36;;;;;;;20.38;12.65;;;15.90;99.90;;;;;;5132484;27;20043;-79
2021/07/28 01:26:04;;;;;;;19.02;12.60;;;15.80;99.90;;;;;;5127436;27;20058;-79
2021/07/28 01:28:32;;;;;;;18.75;12.85;;;15.80;99.90;;;;;;5116917;27;20152;-79
2021/07/28 01:31:02;;;;;;;21.27;13.07;;;15.80;99.90;;;;;;5125713;27;20035;-79
2021/07/28 01:33:31;;;;;;;20.42;12.52;;;15.70;99.90;;;;;;5126257;27;20031;-78
2021/07/28 01:36:01;;;;;;;22.52;14.27;;;15.70;99.90;;;;;;5126856;27;20042;-79
2021/07/28 01:38:27;;;;;;;21.25;14.10;;;15.60;99.90;;;;;;5132045;27;20039;-78
2021/07/28 01:40:58;;;;;;;21.40;14.95;;;15.60;99.90;;;;;;5124411;27;20132;-79
2021/07/28 01:43:25;;;;;;;21.15;14.35;;;15.70;99.90;;;;;;5132074;27;20052;-77
2021/07/28 01:45:51;;;;;;;22.63;15.13;;;15.70;99.90;;;;;;5130827;27;20062;-79
2021/07/28 01:48:17;;;;;;;24.10;15.43;;;15.60;99.90;;;;;;5118721;27;20123;-78
2021/07/28 01:50:45;;;;;;;22.83;17.35;;;15.60;99.90;;;;;;5118484;27;20115;-79
2021/07/28 01:53:11;;;;;;;24.58;16.13;;;15.60;99.90;;;;;;5106219;27;20495;-79
2021/07/28 01:55:37;;;;;;;24.25;15.35;;;15.60;99.90;;;;;;5131875;27;20064;-78
2021/07/28 01:58:03;;;;;;;27.17;16.27;;;15.60;99.90;;;;;;5130621;28;20039;-77
2021/07/28 02:00:29;;;;;;;;;;;15.60;99.90;;;;;;5122581;28;20473;-77
2021/07/28 02:03:02;;;;;;;29.50;17.60;;;15.60;99.90;;;;;;5141755;27;19970;-78
2021/07/28 02:05:30;;;;;;;28.60;17.60;;;15.70;99.90;;;;;;5117184;27;20093;-78
2021/07/28 02:08:04;;;;;;;29.73;19.90;;;15.70;99.90;;;;;;5127227;27;20039;-78
2021/07/28 02:10:37;;;;;;;30.13;18.13;;;15.90;99.90;;;;;;5122383;28;20096;-79
2021/07/28 02:13:04;;;;;;;26.88;17.60;;;15.90;99.90;;;;;;5128766;28;20049;-79
2021/07/28 02:15:32;;;;;;;28.70;18.42;;;15.90;99.90;;;;;;5126573;28;20032;-79
2021/07/28 02:17:59;;;;;;;27.83;18.42;;;15.90;99.90;;;;;;5122380;28;20366;-79
2021/07/28 02:20:26;;;;;;;32.30;17.88;;;15.90;99.90;;;;;;5112774;28;20059;-78
2021/07/28 02:22:52;;;;;;;31.13;18.65;;;15.90;99.90;;;;;;5109748;28;20032;-79
2021/07/28 02:25:18;;;;;;;27.27;17.63;;;16.00;99.90;;;;;;5129099;28;20035;-79
2021/07/28 02:27:44;;;;;;;28.08;18.65;;;16.00;99.90;;;;;;5131746;27;20035;-79
2021/07/28 02:30:12;;;;;;;27.08;17.52;;;16.00;99.90;;;;;;5116153;28;20039;-79
2021/07/28 02:32:38;;;;;;;31.55;18.38;;;16.00;99.90;;;;;;5131715;27;20114;-80
2021/07/28 02:35:05;;;;;;;31.63;19.00;;;16.00;99.90;;;;;;5113070;27;20125;-79
2021/07/28 02:37:31;;;;;;;33.47;19.88;;;16.00;99.90;;;;;;5117845;28;20053;-80
2021/07/28 02:39:58;;;;;;;31.75;19.42;;;16.00;99.90;;;;;;5122096;27;20036;-79
2021/07/28 02:42:24;;;;;;;30.08;18.88;;;16.00;99.90;;;;;;5116102;27;20036;-79
2021/07/28 02:44:49;;;;;;;;;;;16.00;99.90;;;;;;5124590;28;20039;-79
2021/07/28 02:47:15;;;;;;;32.60;19.77;;;16.00;99.90;;;;;;5131202;27;20448;-79
2021/07/28 02:49:41;;;;;;;32.65;19.40;;;15.90;99.90;;;;;;5126516;27;20035;-78
2021/07/28 02:52:07;;;;;;;30.45;18.08;;;15.90;99.90;;;;;;5130920;28;20345;-80
2021/07/28 02:54:33;;;;;;;;;;;15.80;99.90;;;;;;5128244;27;20548;-80
2021/07/28 02:56:59;;;;;;;30.60;19.10;;;15.80;99.90;;;;;;5134116;27;19954;-80
2021/07/28 02:59:25;;;;;;;;;;;15.80;99.90;;;;;;5128286;27;20043;-80
2021/07/28 03:01:52;;;;;;;30.25;18.95;;;15.80;99.90;;;;;;5132293;27;20368;-80
2021/07/28 03:04:19;;;;;;;30.20;19.60;;;15.80;99.90;;;;;;5132119;27;20118;-80
2021/07/28 03:06:46;;;;;;;31.15;19.10;;;15.80;99.90;;;;;;5134842;27;20035;-79
2021/07/28 03:09:12;;;;;;;31.35;19.80;;;15.80;99.90;;;;;;5120294;27;20035;-79
2021/07/28 03:11:38;;;;;;;31.23;20.05;;;15.90;99.90;;;;;;5135704;27;20043;-80
2021/07/28 03:14:04;;;;;;;30.92;20.40;;;15.90;99.90;;;;;;5122759;27;20047;-80
2021/07/28 03:16:30;;;;;;;;;;;15.90;99.90;;;;;;5123198;27;20035;-79
2021/07/28 03:18:55;;;;;;;31.73;20.23;;;16.00;99.90;;;;;;5128847;27;19973;-80
2021/07/28 03:21:22;;;;;;;33.85;21.52;;;15.90;99.90;;;;;;5132533;27;20038;-81
2021/07/28 03:23:47;;;;;;;;;;;15.90;99.90;;;;;;5127893;27;20480;-80
2021/07/28 03:26:13;;;;;;;34.17;20.20;;;15.90;99.90;;;;;;5124967;27;19968;-80
2021/07/28 03:28:39;;;;;;;;;;;15.90;99.90;;;;;;5136718;27;20111;-80
2021/07/28 03:31:04;;;;;;;35.15;20.42;;;15.80;99.90;;;;;;5135520;27;19919;-79
2021/07/28 03:33:30;;;;;;;;;;;15.80;99.90;;;;;;5134842;27;20035;-79
2021/07/28 03:35:56;;;;;;;28.83;19.02;;;15.80;99.90;;;;;;5132488;27;19915;-80
2021/07/28 03:38:22;;;;;;;;;;;15.70;99.90;;;;;;5122016;27;20035;-80
2021/07/28 03:40:48;;;;;;;32.42;19.20;;;15.70;99.90;;;;;;5133373;27;19964;-80
2021/07/28 03:43:15;;;;;;;29.80;19.40;;;15.70;99.90;;;;;;5122729;27;20542;-79
2021/07/28 03:45:42;;;;;;;32.20;19.52;;;15.60;99.90;;;;;;5127782;27;20452;-80
2021/07/28 03:48:08;;;;;;;30.23;20.30;;;15.50;99.90;;;;;;5115012;27;20032;-80
2021/07/28 03:50:35;;;;;;;31.98;20.23;;;15.50;99.90;;;;;;5119573;27;20396;-79
2021/07/28 03:53:01;;;;;;;31.92;20.25;;;15.40;99.90;;;;;;5128302;27;20031;-78
2021/07/28 03:55:27;;;;;;;32.72;20.65;;;15.40;99.90;;;;;;5126931;27;20054;-82
2021/07/28 03:57:53;;;;;;;33.55;19.40;;;15.30;99.90;;;;;;5121685;27;20435;-80
2021/07/28 04:00:19;;;;;;;;;;;15.30;99.90;;;;;;5128114;27;20692;-79
2021/07/28 04:02:45;;;;;;;31.90;19.23;;;15.20;99.90;;;;;;5114685;27;19928;-80
2021/07/28 04:05:12;;;;;;;31.60;19.50;;;15.20;99.90;;;;;;5119021;27;20039;-80
2021/07/28 04:07:38;;;;;;;37.40;20.92;;;15.20;99.90;;;;;;5127383;27;20158;-80
2021/07/28 04:10:04;;;;;;;31.35;19.73;;;15.30;99.90;;;;;;5117318;27;20047;-82
2021/07/28 04:12:30;;;;;;;;;;;15.30;99.90;;;;;;5120685;27;20059;-80
2021/07/28 04:14:55;;;;;;;32.70;20.63;;;15.30;99.90;;;;;;5126461;27;19916;-80
2021/07/28 04:17:21;;;;;;;;;;;15.40;99.90;;;;;;5125840;27;20042;-80
2021/07/28 04:19:50;;;;;;;33.38;19.98;;;15.30;99.90;;;;;;5115386;27;19915;-80
2021/07/28 04:22:19;;;;;;;33.35;19.17;;;15.40;99.90;;;;;;5126922;27;20551;-81
2021/07/28 04:24:46;;;;;;;32.63;20.98;;;15.40;99.90;;;;;;5126131;27;20512;-81
2021/07/28 04:27:13;;;;;;;34.55;20.63;;;15.50;99.90;;;;;;5108406;27;20050;-81
2021/07/28 04:29:39;;;;;;;29.77;18.40;;;15.60;99.90;;;;;;5121340;27;20392;-80
2021/07/28 04:32:05;;;;;;;;;;;15.60;99.90;;;;;;5118754;27;20049;-81
2021/07/28 04:34:33;;;;;;;32.30;19.50;;;15.60;99.90;;;;;;5119371;27;20361;-80
2021/07/28 04:36:59;;;;;;;30.90;19.92;;;15.70;99.90;;;;;;5127473;27;20061;-81
2021/07/28 04:39:24;;;;;;;30.13;19.45;;;15.70;99.90;;;;;;5132129;27;20034;-80
2021/07/28 04:41:50;;;;;;;;;;;15.70;99.90;;;;;;5134666;27;20035;-80
2021/07/28 04:44:16;;;;;;;31.58;20.55;;;15.70;99.90;;;;;;5121249;27;19938;-79
2021/07/28 04:46:42;;;;;;;31.42;18.60;;;15.70;99.90;;;;;;5129222;27;20476;-80
2021/07/28 04:49:07;;;;;;;;;;;15.70;99.90;;;;;;5103880;28;20048;-80
2021/07/28 04:51:34;;;;;;;31.38;18.50;;;15.60;99.90;;;;;;5115576;27;19923;-81
2021/07/28 04:54:00;;;;;;;30.60;19.50;;;15.60;99.90;;;;;;5111403;27;20491;-80
2021/07/28 04:56:26;;;;;;;;;;;15.60;99.90;;;;;;5124667;27;20193;-81
2021/07/28 04:58:52;;;;;;;30.50;19.80;;;15.50;99.90;;;;;;5123168;27;19915;-80
2021/07/28 05:01:17;;;;;;;31.02;20.65;;;15.60;99.90;;;;;;5123650;27;20027;-80
2021/07/28 05:03:43;;;;;;;;;;;15.60;99.90;;;;;;5126130;27;20043;-81
2021/07/28 05:06:09;;;;;;;33.47;19.80;;;15.60;99.90;;;;;;5117945;27;19916;-80
2021/07/28 05:08:34;;;;;;;29.85;18.30;;;15.70;99.90;;;;;;5110341;27;20044;-81
2021/07/28 05:11:03;;;;;;;32.70;19.63;;;15.80;99.90;;;;;;5113151;27;20051;-81
2021/07/28 05:13:29;;;;;;;32.35;20.23;;;15.90;99.90;;;;;;5116563;27;20031;-80
2021/07/28 05:15:55;;;;;;;33.00;19.08;;;15.90;99.90;;;;;;5125593;27;20049;-81
2021/07/28 05:18:24;;;;;;;31.52;19.70;;;15.90;99.90;;;;;;5115442;27;20111;-80
2021/07/28 05:20:50;;;;;;;32.15;19.33;;;16.00;99.90;;;;;;5124054;27;20119;-81
2021/07/28 05:23:15;;;;;;;30.27;19.10;;;16.00;99.90;;;;;;5121206;27;20130;-81
2021/07/28 05:25:41;;;;;;;;;;;16.00;99.90;;;;;;5110563;27;20035;-81
2021/07/28 05:28:07;;;;;;;32.60;19.50;;;16.10;99.90;;;;;;5119359;27;19928;-81
2021/07/28 05:30:33;;;;;;;30.85;19.60;;;16.10;99.90;;;;;;5111106;28;20035;-81
2021/07/28 05:32:59;;;;;;;29.50;19.20;;;16.20;99.90;;;;;;5127312;27;20043;-81
2021/07/28 05:35:26;;;;;;;30.10;18.95;;;16.20;99.90;;;;;;5118616;27;20541;-80
2021/07/28 05:37:59;;;;;;;29.25;19.73;;;16.20;99.90;;;;;;5120219;27;20062;-80
2021/07/28 05:40:25;;;;;;;29.17;18.65;;;16.30;99.90;;;;;;5121331;27;20551;-81
2021/07/28 05:42:52;;;;;;;29.52;18.70;;;16.30;99.90;;;;;;5117873;27;20035;-81
2021/07/28 05:45:18;;;;;;;28.17;18.20;;;16.40;99.90;;;;;;5114703;27;20035;-81
2021/07/28 05:47:45;;;;;;;28.80;19.23;;;16.40;99.90;;;;;;5111774;27;20046;-80
2021/07/28 05:50:15;;;;;;;28.25;17.90;;;16.40;99.90;;;;;;5123346;27;20066;-80
2021/07/28 05:52:42;;;;;;;25.15;16.33;;;16.50;99.90;;;;;;5120185;27;20035;-80
2021/07/28 05:55:09;;;;;;;26.08;17.63;;;16.50;99.90;;;;;;5123299;27;20039;-81
2021/07/28 05:57:35;;;;;;;26.50;17.60;;;16.60;99.90;;;;;;5121748;28;20171;-79
2021/07/28 06:00:03;;;;;;;28.25;17.10;;;16.60;99.90;;;;;;5128958;27;20043;-81
2021/07/28 06:02:30;;;;;;;24.95;18.15;;;16.70;99.90;;;;;;5127531;28;20070;-82
2021/07/28 06:04:56;;;;;;;26.75;18.02;;;16.90;99.90;;;;;;5112653;28;20074;-81
2021/07/28 06:07:22;;;;;;;;;;;16.90;99.90;;;;;;5109281;27;20331;-81
2021/07/28 06:09:47;;;;;;;23.23;16.48;;;17.00;99.90;;;;;;5124578;28;19967;-81
2021/07/28 06:12:17;;;;;;;;;;;17.20;99.90;;;;;;5120893;28;20436;-81
2021/07/28 06:14:46;;;;;;;24.48;16.65;;;17.30;99.90;;;;;;5123817;27;19915;-79
2021/07/28 06:17:12;;;;;;;27.08;18.35;;;17.40;99.90;;;;;;5114764;27;20126;-79
2021/07/28 06:19:39;;;;;;;26.33;17.35;;;17.40;99.90;;;;;;5126867;28;20658;-80
2021/07/28 06:22:05;;;;;;;25.95;17.80;;;17.50;99.90;;;;;;5127344;27;20031;-81
2021/07/28 06:24:31;;;;;;;27.02;16.98;;;17.60;99.90;;;;;;5122967;27;20031;-79
2021/07/28 06:26:57;;;;;;;;;;;17.60;99.90;;;;;;5128667;27;20051;-81
2021/07/28 06:29:25;;;;;;;28.88;18.23;;;17.50;99.90;;;;;;5122586;27;19966;-81
2021/07/28 06:31:54;;;;;;;23.85;17.35;;;17.60;99.90;;;;;;5120481;27;20039;-81
2021/07/28 06:34:20;;;;;;;26.50;17.75;;;17.60;99.90;;;;;;5127739;27;20117;-81
2021/07/28 06:36:46;;;;;;;25.17;17.92;;;17.80;99.90;;;;;;5113071;27;20031;-81
2021/07/28 06:39:12;;;;;;;26.50;17.95;;;17.80;99.90;;;;;;5126080;27;20035;-80
2021/07/28 06:41:38;;;;;;;;;;;17.80;99.90;;;;;;5115678;27;20063;-81
2021/07/28 06:44:04;;;;;;;24.98;17.45;;;17.80;99.90;;;;;;5124839;27;19960;-81
2021/07/28 06:46:30;;;;;;;26.42;18.17;;;17.80;99.90;;;;;;5123288;27;20041;-81
2021/07/28 06:48:56;;;;;;;;;;;17.80;99.90;;;;;;5116645;27;20035;-82
2021/07/28 06:51:21;;;;;;;23.80;17.33;;;17.80;99.90;;;;;;5128456;27;19919;-81
2021/07/28 06:53:48;;;;;;;26.42;18.17;;;17.80;99.90;;;;;;5120366;27;20046;-80
2021/07/28 06:56:14;;;;;;;;;;;17.90;99.90;;;;;;5127846;27;20039;-80
2021/07/28 06:58:41;;;;;;;28.20;18.67;;;17.90;99.90;;;;;;5123389;27;20349;-80
2021/07/28 07:01:08;;;;;;;25.55;17.48;;;18.00;99.90;;;;;;5122690;27;20053;-80
2021/07/28 07:03:35;;;;;;;28.33;18.85;;;18.00;99.90;;;;;;5123356;27;20174;-81
2021/07/28 07:06:02;;;;;;;31.15;18.70;;;18.10;99.90;;;;;;5124733;27;20425;-81
2021/07/28 07:08:28;;;;;;;26.45;18.23;;;18.00;99.90;;;;;;5129761;27;20569;-81
2021/07/28 07:10:53;;;;;;;;;;;18.20;99.90;;;;;;5114834;27;20036;-81
2021/07/28 07:13:19;;;;;;;22.50;17.35;;;18.20;99.90;;;;;;5128073;27;19919;-81
2021/07/28 07:15:45;;;;;;;;;;;18.30;99.90;;;;;;5119476;27;20432;-81
2021/07/28 07:18:11;;;;;;;24.00;17.77;;;18.50;99.90;;;;;;5116040;27;19961;-81
2021/07/28 07:20:37;;;;;;;;;;;18.50;99.90;;;;;;5121561;27;20118;-82
2021/07/28 07:23:03;;;;;;;22.15;15.68;;;18.50;99.90;;;;;;5139959;27;20523;-80
2021/07/28 07:25:29;;;;;;;;;;;18.50;99.90;;;;;;5121104;27;20103;-81
2021/07/28 07:27:56;;;;;;;21.75;15.35;;;18.60;99.90;;;;;;5126101;27;19915;-81
2021/07/28 07:30:24;;;;;;;19.67;14.30;;;18.70;99.90;;;;;;5134370;27;20039;-81
2021/07/28 07:35:34;;;;;;;20.58;14.80;;;19.00;99.90;;;;;;5121203;27;19921;-81
2021/07/28 07:38:09;;;;;;;19.63;14.45;;;19.20;99.90;;;;;;5117992;27;20042;-82
2021/07/28 07:40:42;;;;;;;20.35;14.48;;;19.20;99.90;;;;;;5127370;27;20044;-81
2021/07/28 07:43:08;;;;;;;18.17;14.25;;;19.20;99.90;;;;;;5125214;27;20463;-82
2021/07/28 07:45:35;;;;;;;18.33;14.02;;;19.30;99.90;;;;;;5117992;27;20061;-82
2021/07/28 07:48:01;;;;;;;20.25;13.80;;;19.30;99.90;;;;;;5114234;27;20031;-81
2021/07/28 07:50:31;;;;;;;17.75;14.00;;;19.20;99.90;;;;;;5114116;27;20448;-81
2021/07/28 07:52:59;;;;;;;19.88;13.95;;;19.30;99.90;;;;;;5123422;27;20027;-81
2021/07/28 07:55:26;;;;;;;18.88;13.40;;;19.40;99.90;;;;;;5109538;27;20058;-81
2021/07/28 07:57:51;;;;;;;17.67;13.80;;;19.50;99.90;;;;;;5104307;28;20044;-81
2021/07/28 08:00:17;;;;;;;;;;;19.70;99.90;;;;;;5112225;27;20059;-81
2021/07/28 08:02:43;;;;;;;17.52;13.75;;;19.70;99.90;;;;;;5118383;27;20452;-82
2021/07/28 08:05:09;;;;;;;16.60;12.85;;;19.80;99.90;;;;;;5113706;27;20047;-82
2021/07/28 08:07:35;;;;;;;17.83;12.48;;;20.00;99.90;;;;;;5119304;27;20063;-81
2021/07/28 08:10:02;;;;;;;18.83;13.85;;;20.00;99.90;;;;;;5123353;27;20043;-82
2021/07/28 08:12:28;;;;;;;16.23;12.85;;;20.10;99.90;;;;;;5121240;27;20091;-82
2021/07/28 08:14:53;;;;;;;19.17;13.13;;;20.20;99.90;;;;;;5114824;27;20138;-82
2021/07/28 08:17:20;;;;;;;16.25;12.32;;;20.40;99.90;;;;;;5106983;28;20043;-79
2021/07/28 08:19:46;;;;;;;16.25;11.93;;;20.50;99.90;;;;;;5111417;27;20038;-79
2021/07/28 08:22:12;;;;;;;14.73;11.55;;;20.50;99.90;;;;;;5116163;27;20480;-79
2021/07/28 08:24:37;;;;;;;;;;;20.50;99.90;;;;;;5119245;27;20404;-80
2021/07/28 08:27:03;;;;;;;14.10;10.38;;;20.60;99.90;;;;;;5124126;27;20463;-80
2021/07/28 08:29:29;;;;;;;;;;;20.70;99.90;;;;;;5118126;27;20108;-80
2021/07/28 08:31:55;;;;;;;13.93;10.82;;;20.70;99.90;;;;;;5121405;27;20026;-80
2021/07/28 08:34:21;;;;;;;;;;;20.70;99.90;;;;;;5131476;27;20054;-80
2021/07/28 08:36:47;;;;;;;18.15;10.80;;;20.80;99.90;;;;;;5116643;27;19920;-80
2021/07/28 08:39:12;;;;;;;;;;;20.80;99.90;;;;;;5122280;27;20484;-81
2021/07/28 08:41:43;;;;;;;13.02;9.73;;;20.80;99.90;;;;;;5112867;27;19927;-81
2021/07/28 08:44:09;;;;;;;12.25;9.85;;;20.80;99.90;;;;;;5116768;27;20046;-80
2021/07/28 08:46:34;;;;;;;12.18;10.52;;;20.70;99.90;;;;;;5119616;27;20527;-81
2021/07/28 08:49:01;;;;;;;;;;;20.70;99.90;;;;;;5114461;27;20063;-81
2021/07/28 08:51:27;;;;;;;16.52;10.05;;;20.60;99.90;;;;;;5115929;27;19930;-81
2021/07/28 08:53:54;;;;;;;13.43;9.40;;;20.50;99.90;;;;;;5119348;27;20382;-80
2021/07/28 08:56:23;;;;;;;11.75;9.40;;;20.50;99.90;;;;;;5116977;27;20045;-80
2021/07/28 08:58:49;;;;;;;12.90;10.02;;;20.40;99.90;;;;;;5118467;27;20442;-80
2021/07/28 09:01:16;;;;;;;12.57;9.63;;;20.50;99.90;;;;;;5118242;27;20527;-81
2021/07/28 09:03:43;;;;;;;13.70;10.45;;;20.20;99.90;;;;;;5119790;27;20404;-80
2021/07/28 09:06:25;;;;;;;13.57;10.45;;;20.10;99.90;;;;;;5119971;27;20031;-80
2021/07/28 09:08:59;;;;;;;13.27;9.30;;;20.20;99.90;;;;;;5114158;27;20110;-80
2021/07/28 09:11:26;;;;;;;12.88;9.55;;;20.40;99.90;;;;;;5120132;27;20093;-80
2021/07/28 09:13:55;;;;;;;11.77;8.48;;;20.50;99.90;;;;;;5117831;27;20030;-80
2021/07/28 09:16:21;;;;;;;12.05;8.80;;;20.50;99.90;;;;;;5116846;27;20043;-80
2021/07/28 09:18:49;;;;;;;14.00;8.98;;;20.60;99.90;;;;;;5108101;27;20035;-80
2021/07/28 09:21:26;;;;;;;11.38;8.60;;;20.80;99.90;;;;;;5119647;27;20038;-80
2021/07/28 09:23:55;;;;;;;;;;;21.00;99.90;;;;;;5115124;27;20821;-80
2021/07/28 09:26:38;;;;;;;11.73;9.50;;;21.30;99.90;;;;;;5111935;27;19919;-80
2021/07/28 09:29:08;;;;;;;12.18;8.95;;;21.50;99.90;;;;;;5125866;27;20392;-80
2021/07/28 09:31:48;;;;;;;10.63;8.27;;;21.50;99.90;;;;;;5112829;27;20389;-80
2021/07/28 09:34:26;;;;;;;11.40;8.23;;;21.60;99.90;;;;;;5112384;27;20042;-80
2021/07/28 09:36:57;;;;;;;10.13;8.23;;;21.80;99.90;;;;;;5108859;27;20096;-80
2021/07/28 09:39:22;;;;;;;11.27;7.32;;;22.00;99.90;;;;;;5109699;27;20035;-79
2021/07/28 09:41:48;;;;;;;9.07;7.40;;;22.20;99.90;;;;;;5115686;27;20109;-80
2021/07/28 09:44:22;;;;;;;;;;;22.20;99.90;;;;;;5119546;27;20035;-80
2021/07/28 09:46:50;;;;;;;9.50;7.00;;;22.10;99.90;;;;;;5122862;27;20431;-80
2021/07/28 09:49:19;;;;;;;10.90;6.78;;;21.90;99.90;;;;;;5125761;27;20039;-80
2021/07/28 09:51:46;;;;;;;11.18;6.95;;;21.90;99.90;;;;;;5117547;27;20027;-80
2021/07/28 09:54:13;;;;;;;9.18;6.20;;;22.00;99.90;;;;;;5118469;27;20032;-80
2021/07/28 09:56:45;;;;;;;11.45;7.25;;;22.10;99.90;;;;;;5104243;28;20042;-80
2021/07/28 09:59:11;;;;;;;9.75;6.75;;;22.30;99.90;;;;;;5112376;28;20490;-81
2021/07/28 10:01:37;;;;;;;9.57;6.65;;;22.30;99.90;;;;;;5119861;27;20031;-80
2021/07/28 10:04:08;;;;;;;14.23;6.55;;;22.30;99.90;;;;;;5113258;27;20039;-80
2021/07/28 10:06:54;;;;;;;9.32;7.00;;;22.20;99.90;;;;;;5118182;27;20043;-80
2021/07/28 10:09:42;;;;;;;9.33;6.77;;;22.20;99.90;;;;;;5117310;28;20400;-81
2021/07/28 10:12:08;;;;;;;8.07;6.53;;;22.30;99.90;;;;;;5117246;28;20754;-80
2021/07/28 10:14:35;;;;;;;8.50;6.10;;;22.60;99.90;;;;;;5111496;27;20080;-80
2021/07/28 10:17:02;;;;;;;9.55;7.13;;;22.70;99.90;;;;;;5110932;28;20112;-80
2021/07/28 10:19:29;;;;;;;10.77;6.68;;;22.80;99.90;;;;;;5116033;28;20034;-80
2021/07/28 10:21:55;;;;;;;10.38;6.30;;;22.80;99.90;;;;;;5115968;28;20038;-81
2021/07/28 10:24:21;;;;;;;8.35;6.50;;;22.90;99.90;;;;;;5114950;28;20046;-80
2021/07/28 10:26:51;;;;;;;8.27;5.82;;;23.10;99.90;;;;;;5116624;28;20035;-80
2021/07/28 10:29:18;;;;;;;7.40;6.32;;;23.40;99.90;;;;;;5113143;28;20032;-81
2021/07/28 10:31:51;;;;;;;6.65;5.63;;;23.50;99.90;;;;;;5121405;27;20492;-80
2021/07/28 10:34:24;;;;;;;7.35;6.35;;;23.60;99.90;;;;;;5119181;27;20116;-81
2021/07/28 10:36:53;;;;;;;7.10;6.15;;;23.50;99.90;;;;;;5123716;27;20085;-80
2021/07/28 10:39:40;;;;;;;7.50;6.45;;;23.40;99.90;;;;;;5120094;27;20039;-81
2021/07/28 10:42:10;;;;;;;9.90;6.80;;;23.10;99.90;;;;;;5116702;27;20041;-80
2021/07/28 10:44:57;;;;;;;7.68;6.38;;;22.70;99.90;;;;;;5121688;28;20504;-81
2021/07/28 10:47:43;;;;;;;7.60;6.30;;;22.70;99.90;;;;;;5120955;28;20130;-81
2021/07/28 10:50:30;;;;;;;10.53;7.40;;;22.40;99.90;;;;;;5109772;28;20435;-81
2021/07/28 10:53:03;;;;;;;9.75;6.78;;;22.30;99.90;;;;;;5123544;27;20072;-80
2021/07/28 10:55:30;;;;;;;8.68;7.47;;;22.20;99.90;;;;;;5108671;28;20543;-80
2021/07/28 10:58:06;;;;;;;9.02;7.55;;;22.00;99.90;;;;;;5112596;28;20043;-80
2021/07/28 11:00:35;;;;;;;12.48;8.95;;;21.90;99.90;;;;;;5113364;28;20095;-80
2021/07/28 11:03:07;;;;;;;9.77;8.57;;;21.50;99.90;;;;;;5122839;28;20035;-80
2021/07/28 11:05:56;;;;;;;10.43;8.07;;;21.20;99.90;;;;;;5117746;28;20062;-79
2021/07/28 11:08:22;;;;;;;12.68;9.25;;;21.00;99.90;;;;;;5110392;28;20120;-80
2021/07/28 11:10:48;;;;;;;10.60;8.18;;;21.00;99.90;;;;;;5109849;28;20059;-80
2021/07/28 11:13:16;;;;;;;;;;;21.20;99.90;;;;;;5121749;28;20046;-79
2021/07/28 11:15:51;;;;;;;10.48;8.55;;;21.40;99.90;;;;;;5116158;27;19929;-80
2021/07/28 11:18:17;;;;;;;10.85;8.55;;;21.70;99.90;;;;;;5116437;27;20046;-80
2021/07/28 11:20:43;;;;;;;;;;;22.00;99.90;;;;;;5117806;27;20039;-80
2021/07/28 11:23:24;;;;;;;12.35;8.35;;;22.20;99.90;;;;;;5123995;27;19923;-80
2021/07/28 11:25:51;;;;;;;12.45;7.30;;;22.20;99.90;;;;;;5122839;27;20031;-79
2021/07/28 11:28:20;;;;;;;10.82;7.32;;;22.20;99.90;;;;;;5122279;27;20039;-79
2021/07/28 11:30:59;;;;;;;9.65;7.55;;;22.10;99.90;;;;;;5125530;27;20099;-80
2021/07/28 11:33:27;;;;;;;7.68;5.78;;;22.00;99.90;;;;;;5117188;27;20046;-80
2021/07/28 11:35:54;;;;;;;6.85;5.97;;;22.10;99.90;;;;;;5115020;27;20059;-80
2021/07/28 11:38:31;;;;;;;6.75;5.05;;;22.40;99.90;;;;;;5117385;27;20039;-80
2021/07/28 11:40:58;;;;;;;6.97;5.20;;;22.50;99.90;;;;;;5119254;27;20093;-80
2021/07/28 11:43:32;;;;;;;7.63;5.20;;;22.50;99.90;;;;;;5117607;27;20078;-79
2021/07/28 11:46:04;;;;;;;6.97;5.53;;;22.60;99.90;;;;;;5117284;27;20081;-80
2021/07/28 11:48:31;;;;;;;7.68;5.72;;;22.60;99.90;;;;;;5118091;27;20043;-80
2021/07/28 11:50:57;;;;;;;7.95;5.32;;;22.60;99.90;;;;;;5121493;27;20050;-80
2021/07/28 11:53:27;;;;;;;10.13;5.25;;;22.20;99.90;;;;;;5117157;27;20039;-80
2021/07/28 11:55:54;;;;;;;9.82;5.72;;;22.00;99.90;;;;;;5097886;27;20039;-80
2021/07/28 11:58:23;;;;;;;7.35;5.57;;;21.60;99.90;;;;;;5118318;27;20392;-80
2021/07/28 12:00:50;;;;;;;11.75;6.13;;;21.40;99.90;;;;;;5117547;27;20050;-79
2021/07/28 12:03:29;;;;;;;10.38;6.32;;;21.30;99.90;;;;;;5116728;27;20047;-79
2021/07/28 12:06:02;;;;;;;7.63;5.32;;;21.30;99.90;;;;;;5115466;27;20701;-80
2021/07/28 12:08:38;;;;;;;7.70;5.90;;;21.50;99.90;;;;;;5116662;27;20035;-79
2021/07/28 12:11:05;;;;;;;9.30;6.32;;;21.80;99.90;;;;;;5120634;27;20042;-80
2021/07/28 12:13:41;;;;;;;6.97;5.90;;;22.00;99.90;;;;;;5120327;27;20071;-79
2021/07/28 12:16:07;;;;;;;11.98;5.82;;;22.20;99.90;;;;;;5120676;27;20127;-79
2021/07/28 12:18:45;;;;;;;9.80;5.85;;;22.40;99.90;;;;;;5112204;27;20161;-80
2021/07/28 12:21:12;;;;;;;8.45;6.72;;;22.40;99.90;;;;;;5121711;27;20039;-79
2021/07/28 12:23:56;;;;;;;7.80;6.70;;;22.30;99.90;;;;;;5123949;27;20035;-80
2021/07/28 12:26:48;;;;;;;11.10;7.13;;;22.10;99.90;;;;;;5118182;27;20043;-80
2021/07/28 12:29:38;;;;;;;10.93;7.60;;;21.90;99.90;;;;;;5117734;27;20062;-79
2021/07/28 12:32:14;;;;;;;8.73;7.13;;;21.80;99.90;;;;;;5123823;27;20523;-80
2021/07/28 12:34:40;;;;;;;8.60;6.90;;;21.90;99.90;;;;;;5111910;27;20042;-80
2021/07/28 12:37:21;;;;;;;;;;;22.10;99.90;;;;;;5114087;27;20031;-80
2021/07/28 12:39:47;;;;;;;9.40;6.35;;;22.40;99.90;;;;;;5113463;27;19990;-79
2021/07/28 12:42:14;;;;;;;10.45;5.70;;;22.70;99.90;;;;;;5127628;27;20047;-80
2021/07/28 12:44:40;;;;;;;9.32;6.57;;;22.90;99.90;;;;;;5118532;27;20119;-79
2021/07/28 12:47:06;;;;;;;7.90;6.32;;;23.10;99.90;;;;;;5110414;27;20043;-80
2021/07/28 12:49:31;;;;;;;10.98;5.90;;;23.00;99.90;;;;;;5117959;27;20042;-80
2021/07/28 12:51:57;;;;;;;8.13;6.13;;;22.80;99.90;;;;;;5110003;27;20044;-80
2021/07/28 12:54:23;;;;;;;8.65;5.93;;;22.60;99.90;;;;;;5096209;27;20047;-80
2021/07/28 12:56:48;;;;;;;8.32;6.15;;;22.50;99.90;;;;;;5109735;27;20024;-80